Search for the current weather situation

Metar

Metar
TNCE 212355Z AUTO 06013KT 030V090 //// // ///////// 26/21 Q1016 RE//
Decoded Metar

TAF

TAF
TNCE 212355Z AUTO 06013KT 030V090 //// // ///////// 26/21 Q1016 RE//
Decoded TAF
Top